createdAt,value
2022-12-20T00:01:34.388Z,22.92
2022-12-20T00:04:05.600Z,27.90
2022-12-20T00:06:35.017Z,25.38
2022-12-20T00:09:03.006Z,30.52
2022-12-20T00:11:30.132Z,29.52
2022-12-20T00:13:57.730Z,22.55
2022-12-20T00:16:27.158Z,28.60
2022-12-20T00:19:02.580Z,24.98
2022-12-20T00:21:30.311Z,24.25
2022-12-20T00:23:57.986Z,27.30
2022-12-20T00:26:27.997Z,36.33
2022-12-20T00:28:55.308Z,30.58
2022-12-20T03:51:29.823Z,38.60
2022-12-20T03:53:56.691Z,29.88
2022-12-20T03:56:23.438Z,22.05
2022-12-20T03:58:50.379Z,20.40
2022-12-20T04:01:28.372Z,25.58
2022-12-20T04:03:56.162Z,18.40
2022-12-20T04:06:23.895Z,20.73
2022-12-20T04:08:50.669Z,20.92
2022-12-20T04:11:17.570Z,19.90
2022-12-20T04:13:45.871Z,18.85
2022-12-20T04:16:14.224Z,22.08
2022-12-20T04:18:41.334Z,18.83
2022-12-20T04:21:08.682Z,19.08
2022-12-20T04:23:36.423Z,18.17
2022-12-20T04:26:05.412Z,12.32
2022-12-20T04:28:32.428Z,17.20
2022-12-20T04:30:59.556Z,15.00
2022-12-20T04:33:27.379Z,13.30
2022-12-20T04:35:54.749Z,15.82
2022-12-20T04:38:22.513Z,11.07
2022-12-20T04:40:51.030Z,13.77
2022-12-20T04:43:18.737Z,14.35
2022-12-20T04:45:47.967Z,14.50
2022-12-20T04:48:54.434Z,13.20
2022-12-20T04:51:02.582Z,16.05
2022-12-20T04:53:50.396Z,10.93
2022-12-20T04:56:27.632Z,10.82
2022-12-20T04:58:56.889Z,14.98
2022-12-20T05:01:24.191Z,12.23
2022-12-20T05:03:51.293Z,17.33
2022-12-20T05:06:18.965Z,15.35
2022-12-20T05:08:45.746Z,14.32
2022-12-20T20:53:58.801Z,17.88
2022-12-20T20:56:26.653Z,18.92
2022-12-20T20:58:57.622Z,22.98
2022-12-20T21:01:27.950Z,21.17
2022-12-20T21:03:56.123Z,18.58
2022-12-20T21:06:41.798Z,19.67
2022-12-20T21:09:09.909Z,22.00
2022-12-20T21:11:37.178Z,21.73
2022-12-20T21:14:04.436Z,23.92
2022-12-20T21:16:31.477Z,19.33
2022-12-20T21:18:59.068Z,21.45
2022-12-20T21:21:26.861Z,19.83
2022-12-20T21:23:54.797Z,18.92
2022-12-20T21:26:22.751Z,18.50
2022-12-20T21:28:49.518Z,20.42
2022-12-20T21:31:18.379Z,18.25
2022-12-20T21:33:48.864Z,23.27
2022-12-20T21:36:18.087Z,21.65
2022-12-20T21:38:53.462Z,21.02
2022-12-20T21:41:23.233Z,21.70
2022-12-20T21:43:51.095Z,21.85
2022-12-20T21:46:18.108Z,23.05
2022-12-20T21:48:45.357Z,24.60
2022-12-20T21:51:17.504Z,24.27
2022-12-20T21:53:47.135Z,24.13
2022-12-20T21:56:15.771Z,21.95
2022-12-20T21:58:43.284Z,21.40
2022-12-20T22:01:12.145Z,22.65
2022-12-20T22:03:39.275Z,22.13
2022-12-20T22:06:06.621Z,24.02
2022-12-20T22:08:34.140Z,22.63
2022-12-20T22:11:10.036Z,23.38
2022-12-20T22:13:41.600Z,21.33
2022-12-20T22:16:11.559Z,19.52
2022-12-20T22:18:39.810Z,22.65
2022-12-20T22:21:09.436Z,23.13
2022-12-20T22:23:37.534Z,21.95
2022-12-20T22:26:06.404Z,22.67
2022-12-20T22:28:33.372Z,24.63
2022-12-20T22:31:00.147Z,23.63
2022-12-20T22:33:26.968Z,24.50
2022-12-20T22:35:53.786Z,22.45
2022-12-20T22:38:20.555Z,26.40
2022-12-20T22:40:47.367Z,22.02
2022-12-20T22:43:14.096Z,24.38
2022-12-20T22:45:40.942Z,24.67
2022-12-20T22:48:07.820Z,21.90
2022-12-20T22:50:34.585Z,25.70
2022-12-20T22:53:01.335Z,28.08
2022-12-20T22:55:28.164Z,26.23
2022-12-20T22:57:54.931Z,23.88
2022-12-20T23:00:21.784Z,26.23
2022-12-20T23:02:48.685Z,28.08
2022-12-20T23:05:15.659Z,29.33
2022-12-20T23:07:42.384Z,23.88
2022-12-20T23:10:29.793Z,26.55
2022-12-20T23:13:15.347Z,25.48
2022-12-20T23:15:42.162Z,25.63
2022-12-20T23:18:08.941Z,26.38
2022-12-20T23:20:54.650Z,25.08
2022-12-20T23:23:21.374Z,28.02
2022-12-20T23:25:48.101Z,30.65
2022-12-20T23:28:14.989Z,26.15
2022-12-20T23:30:41.761Z,27.38
2022-12-20T23:33:08.492Z,24.45
2022-12-20T23:35:35.306Z,25.73
2022-12-20T23:38:02.289Z,24.60
2022-12-20T23:40:29.078Z,26.42
2022-12-20T23:42:55.935Z,22.20
2022-12-20T23:45:22.696Z,24.30
2022-12-20T23:47:49.396Z,27.77
2022-12-20T23:50:16.229Z,30.85
2022-12-20T23:52:42.976Z,22.67
2022-12-20T23:55:09.752Z,26.00
2022-12-20T23:57:36.594Z,29.30
